createdAt,value
2018-09-17T00:01:32.189Z,9.37
2018-09-17T00:06:35.760Z,9.80
2018-09-17T00:11:39.359Z,11.43
2018-09-17T00:16:42.904Z,8.83
2018-09-17T00:21:46.468Z,8.37
2018-09-17T00:26:50.110Z,7.93
2018-09-17T00:31:56.205Z,10.90
2018-09-17T00:36:59.905Z,7.87
2018-09-17T00:42:03.752Z,8.90
2018-09-17T00:47:07.347Z,7.80
2018-09-17T00:52:10.969Z,8.60
2018-09-17T00:57:14.599Z,10.13
2018-09-17T01:02:18.114Z,14.37
2018-09-17T01:07:21.629Z,7.93
2018-09-17T01:12:25.154Z,11.43
2018-09-17T01:17:28.698Z,9.60
2018-09-17T01:22:32.230Z,8.07
2018-09-17T01:27:35.805Z,9.13
2018-09-17T01:32:39.341Z,8.83
2018-09-17T01:37:42.841Z,9.77
2018-09-17T01:42:46.495Z,7.77
2018-09-17T01:47:50.107Z,10.57
2018-09-17T01:52:53.708Z,9.53
2018-09-17T01:57:57.393Z,9.43
2018-09-17T02:03:01.001Z,9.23
2018-09-17T02:08:04.810Z,9.30
2018-09-17T02:13:08.581Z,10.10
2018-09-17T02:18:12.187Z,14.17
2018-09-17T02:23:15.720Z,11.93
2018-09-17T02:28:19.252Z,11.83
2018-09-17T02:33:22.813Z,13.43
2018-09-17T02:38:26.457Z,13.53
2018-09-17T02:43:30.000Z,11.53
2018-09-17T02:48:33.577Z,11.10
2018-09-17T02:53:37.191Z,11.57
2018-09-17T02:58:40.713Z,13.97
2018-09-17T03:03:44.328Z,11.07
2018-09-17T03:08:48.011Z,14.23
2018-09-17T03:14:02.131Z,10.77
2018-09-17T03:19:05.747Z,11.27
2018-09-17T03:24:09.358Z,21.90
2018-09-17T03:29:13.007Z,12.90
2018-09-17T03:34:16.521Z,11.97
2018-09-17T03:39:20.084Z,11.43
2018-09-17T03:44:23.927Z,13.30
2018-09-17T03:49:27.498Z,13.00
2018-09-17T03:54:31.097Z,12.53
2018-09-17T03:59:34.635Z,12.93
2018-09-17T04:04:38.505Z,14.87
2018-09-17T04:09:44.217Z,13.40
2018-09-17T04:14:47.963Z,15.40
2018-09-17T04:19:59.435Z,14.07
2018-09-17T04:25:03.036Z,15.33
2018-09-17T04:30:07.002Z,17.10
2018-09-17T04:35:10.581Z,15.97
2018-09-17T04:40:14.226Z,16.63
2018-09-17T04:45:17.773Z,13.67
2018-09-17T04:50:21.386Z,13.97
2018-09-17T04:55:24.911Z,13.93
2018-09-17T05:00:35.695Z,12.40
2018-09-17T05:05:39.289Z,14.33
2018-09-17T05:10:42.816Z,19.33
2018-09-17T05:15:46.529Z,11.77
2018-09-17T05:20:50.058Z,13.90
2018-09-17T05:25:53.614Z,15.33
2018-09-17T05:30:57.241Z,14.10
2018-09-17T05:36:00.834Z,13.10
2018-09-17T05:41:04.842Z,14.77
2018-09-17T05:46:08.461Z,19.33
2018-09-17T05:51:12.730Z,13.57
2018-09-17T05:56:16.557Z,16.17
2018-09-17T06:01:20.681Z,14.40
2018-09-17T06:06:24.451Z,13.33
2018-09-17T06:11:28.272Z,14.63
2018-09-17T06:16:32.110Z,14.03
2018-09-17T06:21:35.889Z,12.70
2018-09-17T06:26:39.563Z,12.40
2018-09-17T06:31:46.970Z,12.10
2018-09-17T06:36:50.646Z,14.23
2018-09-17T06:41:54.488Z,18.87
2018-09-17T06:46:58.190Z,13.47
2018-09-17T06:52:01.789Z,14.73
2018-09-17T06:57:05.366Z,12.67
2018-09-17T07:02:09.089Z,16.97
2018-09-17T07:07:12.802Z,12.03
2018-09-17T07:12:16.433Z,19.23
2018-09-17T07:17:20.020Z,14.47
2018-09-17T07:22:23.706Z,14.13
2018-09-17T07:27:27.301Z,14.03
2018-09-17T07:32:30.977Z,13.27
2018-09-17T07:37:34.626Z,12.60
2018-09-17T07:42:38.320Z,11.70
2018-09-17T07:47:43.564Z,14.07
2018-09-17T07:52:47.298Z,13.60
2018-09-17T07:57:55.807Z,13.43
2018-09-17T08:03:00.184Z,13.63
2018-09-17T08:08:03.848Z,13.10
2018-09-17T08:13:07.541Z,10.40
2018-09-17T08:18:11.137Z,11.67
2018-09-17T08:23:15.029Z,17.93
2018-09-17T08:28:18.709Z,13.60
2018-09-17T08:33:22.384Z,11.67
2018-09-17T08:38:26.270Z,14.70
2018-09-17T08:43:30.099Z,10.13
2018-09-17T08:48:33.812Z,17.47
2018-09-17T08:53:37.693Z,12.43
2018-09-17T08:58:46.582Z,10.63
2018-09-17T09:03:57.743Z,10.27
2018-09-17T09:09:01.920Z,12.97
2018-09-17T09:14:10.557Z,12.40
2018-09-17T09:19:14.250Z,11.80
2018-09-17T09:24:18.546Z,13.17
2018-09-17T09:29:22.693Z,10.83
2018-09-17T09:34:26.439Z,13.50
2018-09-17T09:39:33.537Z,9.47
2018-09-17T09:44:43.163Z,9.47
2018-09-17T09:49:50.318Z,13.40
2018-09-17T09:55:03.201Z,15.00
2018-09-17T10:00:13.714Z,11.63
2018-09-17T10:05:17.623Z,15.00
2018-09-17T10:10:26.783Z,12.03
2018-09-17T10:15:35.537Z,9.63
2018-09-17T10:20:39.093Z,7.80
2018-09-17T10:25:42.697Z,10.33
2018-09-17T10:30:46.512Z,6.03
2018-09-17T10:35:50.051Z,5.03
2018-09-17T10:40:53.607Z,5.20
2018-09-17T10:45:57.172Z,6.03
2018-09-17T10:51:00.767Z,4.90
2018-09-17T10:56:04.372Z,3.23
2018-09-17T11:01:07.973Z,7.43
2018-09-17T11:06:11.796Z,5.13
2018-09-17T11:11:17.438Z,3.27
2018-09-17T11:16:21.040Z,3.23
2018-09-17T11:21:24.652Z,2.80
2018-09-17T11:26:28.427Z,4.73
2018-09-17T11:31:32.481Z,3.17
2018-09-17T11:36:42.407Z,3.97
2018-09-17T11:41:51.861Z,5.10
2018-09-17T11:46:55.409Z,6.53
2018-09-17T11:52:02.733Z,4.50
2018-09-17T11:57:06.399Z,2.60
2018-09-17T12:02:15.530Z,2.67
2018-09-17T12:07:24.333Z,9.90
2018-09-17T12:12:27.989Z,2.33
2018-09-17T12:17:31.784Z,3.23
2018-09-17T12:22:35.519Z,2.87
2018-09-17T12:27:41.318Z,3.67
2018-09-17T12:32:52.409Z,4.17
2018-09-17T12:37:56.050Z,3.13
2018-09-17T12:42:59.660Z,4.40
2018-09-17T12:48:03.340Z,2.30
2018-09-17T12:53:06.924Z,5.90
2018-09-17T12:58:10.453Z,2.30
2018-09-17T13:03:14.114Z,4.57
2018-09-17T13:08:17.963Z,3.33
2018-09-17T13:13:21.625Z,4.03
2018-09-17T13:18:26.317Z,2.60
2018-09-17T13:23:29.974Z,4.40
2018-09-17T13:28:33.515Z,4.30
2018-09-17T13:33:37.034Z,3.83
2018-09-17T13:38:40.576Z,3.07
2018-09-17T13:43:44.097Z,4.17
2018-09-17T13:48:47.803Z,2.50
2018-09-17T13:53:51.443Z,3.07
2018-09-17T13:58:54.965Z,3.63
2018-09-17T14:03:58.557Z,3.53
2018-09-17T14:09:02.215Z,3.27
2018-09-17T14:14:05.964Z,3.17
2018-09-17T14:19:09.553Z,4.00
2018-09-17T14:24:13.410Z,2.50
2018-09-17T14:29:16.988Z,5.00
2018-09-17T14:34:20.589Z,2.80
2018-09-17T14:39:24.300Z,2.23
2018-09-17T14:44:27.930Z,4.73
2018-09-17T14:49:39.185Z,3.83
2018-09-17T14:54:42.891Z,6.13
2018-09-17T14:59:46.426Z,2.37
2018-09-17T15:04:50.088Z,4.40
2018-09-17T15:09:53.766Z,2.00
2018-09-17T15:14:57.413Z,3.53
2018-09-17T15:20:00.989Z,3.63
2018-09-17T15:25:04.918Z,3.97
2018-09-17T15:30:13.367Z,3.17
2018-09-17T15:35:17.155Z,3.53
2018-09-17T15:40:20.973Z,2.90
2018-09-17T15:45:24.922Z,3.97
2018-09-17T15:50:28.534Z,5.37
2018-09-17T15:55:32.149Z,4.23
2018-09-17T16:00:35.792Z,2.63
2018-09-17T16:05:39.373Z,2.10
2018-09-17T16:10:43.000Z,5.13
2018-09-17T16:15:48.021Z,3.17
2018-09-17T16:20:51.659Z,3.70
2018-09-17T16:25:55.244Z,2.63
2018-09-17T16:30:58.781Z,2.80
2018-09-17T16:36:02.362Z,3.93
2018-09-17T16:41:06.301Z,3.83
2018-09-17T16:46:09.883Z,3.30
2018-09-17T16:51:13.557Z,2.87
2018-09-17T16:56:17.106Z,2.23
2018-09-17T17:01:20.766Z,2.40
2018-09-17T17:06:24.623Z,4.07
2018-09-17T17:11:28.236Z,3.07
2018-09-17T17:16:31.785Z,2.63
2018-09-17T17:21:36.273Z,4.13
2018-09-17T17:26:39.831Z,3.53
2018-09-17T17:31:43.454Z,2.57
2018-09-17T17:36:47.793Z,4.47
2018-09-17T17:41:52.406Z,3.90
2018-09-17T17:46:56.905Z,9.17
2018-09-17T17:52:01.616Z,8.73
2018-09-17T17:57:06.327Z,4.27
2018-09-17T18:02:10.037Z,6.40
2018-09-17T18:07:13.823Z,6.07
2018-09-17T18:12:17.394Z,4.50
2018-09-17T18:17:21.365Z,4.43
2018-09-17T18:22:26.216Z,4.83
2018-09-17T18:27:31.013Z,5.83
2018-09-17T18:32:35.883Z,6.87
2018-09-17T18:37:41.463Z,6.27
2018-09-17T18:42:46.146Z,9.97
2018-09-17T18:47:50.007Z,7.67
2018-09-17T18:52:54.027Z,4.60
2018-09-17T18:57:58.552Z,8.03
2018-09-17T19:03:02.243Z,8.93
2018-09-17T19:08:05.944Z,5.60
2018-09-17T19:13:09.734Z,5.67
2018-09-17T19:18:19.328Z,3.13
2018-09-17T19:23:29.189Z,8.20
2018-09-17T19:28:38.164Z,4.23
2018-09-17T19:33:41.815Z,3.63
2018-09-17T19:38:50.767Z,4.30
2018-09-17T19:43:54.458Z,6.87
2018-09-17T19:48:58.056Z,5.30
2018-09-17T19:54:01.762Z,4.23
2018-09-17T19:59:10.747Z,3.70
2018-09-17T20:04:20.451Z,4.93
2018-09-17T20:09:24.742Z,4.00
2018-09-17T20:14:29.428Z,4.37
2018-09-17T20:19:33.270Z,6.03
2018-09-17T20:24:37.666Z,7.40
2018-09-17T20:29:42.268Z,6.53
2018-09-17T20:34:47.073Z,6.53
2018-09-17T20:39:51.715Z,6.40
2018-09-17T20:44:56.258Z,4.70
2018-09-17T20:49:59.965Z,5.47
2018-09-17T20:55:03.588Z,5.63
2018-09-17T21:00:09.356Z,5.77
2018-09-17T21:05:13.655Z,7.73
2018-09-17T21:10:17.846Z,5.13
2018-09-17T21:15:21.608Z,7.97
2018-09-17T21:20:26.749Z,8.17
2018-09-17T21:25:30.473Z,8.23
2018-09-17T21:30:34.137Z,10.27
2018-09-17T21:35:37.739Z,10.60
2018-09-17T21:40:41.628Z,9.07
2018-09-17T21:45:45.292Z,8.73
2018-09-17T21:50:59.330Z,8.13
2018-09-17T21:56:02.985Z,9.63
2018-09-17T22:01:07.074Z,10.20
2018-09-17T22:06:15.004Z,8.33
2018-09-17T22:11:18.955Z,12.33
2018-09-17T22:16:22.716Z,14.50
2018-09-17T22:21:26.299Z,11.93
2018-09-17T22:26:29.920Z,10.43
2018-09-17T22:31:33.515Z,14.13
2018-09-17T22:36:37.092Z,11.77
2018-09-17T22:41:41.127Z,10.00
2018-09-17T22:46:44.653Z,8.40
2018-09-17T22:51:48.274Z,10.90
2018-09-17T22:56:51.794Z,8.53
2018-09-17T23:01:55.398Z,10.60
2018-09-17T23:06:58.918Z,9.57
2018-09-17T23:12:02.795Z,12.97
2018-09-17T23:17:06.431Z,10.23
2018-09-17T23:22:10.002Z,12.10
2018-09-17T23:27:14.004Z,9.20
2018-09-17T23:32:17.887Z,12.10
2018-09-17T23:37:21.661Z,7.80
2018-09-17T23:42:25.204Z,8.83
2018-09-17T23:47:30.237Z,12.57
2018-09-17T23:52:33.935Z,9.67
2018-09-17T23:57:37.508Z,10.30
